createdAt,value
2019-04-30T00:01:58.763Z,29.97
2019-04-30T00:04:37.559Z,32.63
2019-04-30T00:07:05.510Z,32.23
2019-04-30T00:09:36.303Z,32.93
2019-04-30T00:12:05.794Z,36.97
2019-04-30T00:14:38.575Z,35.70
2019-04-30T00:17:10.640Z,34.47
2019-04-30T00:19:37.856Z,34.80
2019-04-30T00:22:07.362Z,36.27
2019-04-30T00:24:39.927Z,36.50
2019-04-30T00:27:08.388Z,36.60
2019-04-30T00:29:37.904Z,34.10
2019-04-30T00:32:08.040Z,36.27
2019-04-30T00:34:39.384Z,36.17
2019-04-30T00:37:13.751Z,36.10
2019-04-30T00:39:44.358Z,36.87
2019-04-30T00:42:11.307Z,35.63
2019-04-30T00:44:40.811Z,35.17
2019-04-30T00:47:10.310Z,35.70
2019-04-30T00:49:39.834Z,35.57
2019-04-30T00:52:09.350Z,36.90
2019-04-30T00:54:39.316Z,36.57
2019-04-30T00:57:08.816Z,35.40
2019-04-30T00:59:39.802Z,34.37
2019-04-30T01:02:31.727Z,34.97
2019-04-30T01:05:05.425Z,32.33
2019-04-30T01:07:30.062Z,33.03
2019-04-30T01:09:59.702Z,32.10
2019-04-30T01:12:35.945Z,35.50
2019-04-30T01:15:01.752Z,32.23
2019-04-30T01:17:31.942Z,32.33
2019-04-30T01:20:01.579Z,32.10
2019-04-30T01:22:32.934Z,31.20
2019-04-30T01:25:11.757Z,31.30
2019-04-30T01:27:33.623Z,31.23
2019-04-30T01:30:04.386Z,32.53
2019-04-30T01:32:33.898Z,31.57
2019-04-30T01:35:03.430Z,30.20
2019-04-30T01:37:33.104Z,31.40
2019-04-30T01:40:10.640Z,32.37
2019-04-30T01:42:34.458Z,32.73
2019-04-30T01:45:04.065Z,31.93
2019-04-30T01:47:33.644Z,32.23
2019-04-30T01:50:04.862Z,31.27
2019-04-30T01:52:52.367Z,31.40
2019-04-30T01:55:26.229Z,30.63
2019-04-30T01:58:19.387Z,32.07
2019-04-30T02:00:52.179Z,31.23
2019-04-30T02:03:21.706Z,33.53
2019-04-30T02:05:51.255Z,31.93
2019-04-30T02:08:20.763Z,31.50
2019-04-30T02:10:51.386Z,32.80
2019-04-30T02:13:21.233Z,31.80
2019-04-30T02:15:50.735Z,32.90
2019-04-30T02:18:20.279Z,33.50
2019-04-30T02:20:50.162Z,33.93
2019-04-30T02:23:19.778Z,32.57
2019-04-30T02:25:49.247Z,31.73
2019-04-30T02:28:19.063Z,32.77
2019-04-30T02:30:50.482Z,32.27
2019-04-30T02:33:20.283Z,31.83
2019-04-30T02:36:10.287Z,32.23
2019-04-30T02:38:43.286Z,31.87
2019-04-30T02:41:13.514Z,33.37
2019-04-30T02:43:44.176Z,31.93
2019-04-30T02:46:15.983Z,32.87
2019-04-30T02:48:50.053Z,33.63
2019-04-30T02:51:22.992Z,33.17
2019-04-30T02:54:31.285Z,32.27
2019-04-30T02:57:13.961Z,32.90
2019-04-30T03:00:01.848Z,32.67
2019-04-30T03:02:32.384Z,33.60
2019-04-30T03:05:02.051Z,32.80
2019-04-30T03:07:31.629Z,34.33
2019-04-30T03:10:01.167Z,31.23
2019-04-30T03:12:33.774Z,32.10
2019-04-30T03:15:01.965Z,32.60
2019-04-30T03:17:53.983Z,31.97
2019-04-30T03:20:36.077Z,30.40
2019-04-30T03:23:03.876Z,31.63
2019-04-30T03:25:33.385Z,30.83
2019-04-30T03:28:02.904Z,31.00
2019-04-30T03:30:32.565Z,31.93
2019-04-30T03:33:03.188Z,31.60
2019-04-30T03:35:32.953Z,29.93
2019-04-30T03:38:02.435Z,28.67
2019-04-30T03:40:31.943Z,29.93
2019-04-30T03:43:03.047Z,29.60
2019-04-30T03:45:33.092Z,28.70
2019-04-30T03:48:02.600Z,29.07
2019-04-30T03:50:49.332Z,27.73
2019-04-30T03:53:04.239Z,27.20
2019-04-30T03:55:34.095Z,27.07
2019-04-30T03:58:03.983Z,26.90
2019-04-30T04:00:46.676Z,25.83
2019-04-30T04:03:16.254Z,26.10
2019-04-30T04:06:09.465Z,26.33
2019-04-30T04:09:10.448Z,26.40
2019-04-30T04:11:42.066Z,27.77
2019-04-30T04:14:11.564Z,26.27
2019-04-30T04:16:41.223Z,27.70
2019-04-30T04:19:10.743Z,26.00
2019-04-30T04:21:40.582Z,29.20
2019-04-30T04:24:10.690Z,28.10
2019-04-30T04:26:43.538Z,28.93
2019-04-30T04:29:12.516Z,29.83
2019-04-30T04:31:42.176Z,29.00
2019-04-30T04:34:11.688Z,28.17
2019-04-30T04:36:43.450Z,27.07
2019-04-30T04:39:12.496Z,25.80
2019-04-30T04:41:44.199Z,25.23
2019-04-30T04:44:13.332Z,29.00
2019-04-30T04:46:43.201Z,26.87
2019-04-30T04:49:12.748Z,28.73
2019-04-30T04:51:42.720Z,27.90
2019-04-30T04:54:12.240Z,28.27
2019-04-30T04:56:41.745Z,27.87
2019-04-30T04:59:11.651Z,28.17
2019-04-30T05:01:41.626Z,28.20
2019-04-30T05:04:11.827Z,28.83
2019-04-30T05:06:42.410Z,27.27
2019-04-30T05:09:11.906Z,27.87
2019-04-30T05:11:41.546Z,28.07
2019-04-30T05:14:11.326Z,28.57
2019-04-30T05:16:41.210Z,27.90
2019-04-30T05:19:10.767Z,28.63
2019-04-30T05:21:44.562Z,26.53
2019-04-30T05:24:11.434Z,27.10
2019-04-30T05:26:40.954Z,27.40
2019-04-30T05:29:10.826Z,27.10
2019-04-30T05:31:40.351Z,25.87
2019-04-30T05:34:10.279Z,25.77
2019-04-30T05:36:40.114Z,25.20
2019-04-30T05:39:09.623Z,25.10
2019-04-30T05:41:41.133Z,25.40
2019-04-30T05:44:10.309Z,26.53
2019-04-30T05:46:40.224Z,24.10
2019-04-30T05:49:10.058Z,25.90
2019-04-30T05:51:39.698Z,25.13
2019-04-30T05:54:09.558Z,24.10
2019-04-30T05:56:39.880Z,23.80
2019-04-30T05:59:10.362Z,24.63
2019-04-30T06:01:47.763Z,23.07
2019-04-30T06:04:11.801Z,22.73
2019-04-30T06:06:41.570Z,22.93
2019-04-30T06:09:30.997Z,23.40
2019-04-30T06:12:13.938Z,23.37
2019-04-30T06:15:05.606Z,25.00
2019-04-30T06:17:35.545Z,22.50
2019-04-30T06:20:16.133Z,24.00
2019-04-30T06:22:38.475Z,23.00
2019-04-30T06:25:10.555Z,22.43
2019-04-30T06:27:39.692Z,24.50
2019-04-30T06:30:12.142Z,23.77
2019-04-30T06:32:43.792Z,25.33
2019-04-30T06:35:13.547Z,23.10
2019-04-30T06:37:43.042Z,24.23
2019-04-30T06:40:13.206Z,22.47
2019-04-30T06:42:42.902Z,23.43
2019-04-30T06:45:13.214Z,21.80
2019-04-30T06:47:43.064Z,22.73
2019-04-30T06:50:12.757Z,22.53
2019-04-30T06:52:53.759Z,23.37
2019-04-30T06:55:13.522Z,22.30
2019-04-30T06:57:43.036Z,23.73
2019-04-30T07:00:12.791Z,22.83
2019-04-30T07:02:42.292Z,24.53
2019-04-30T07:05:12.020Z,23.00
2019-04-30T07:08:08.876Z,22.90
2019-04-30T07:10:33.953Z,22.20
2019-04-30T07:13:18.942Z,24.20
2019-04-30T07:15:49.059Z,23.40
2019-04-30T07:18:19.397Z,21.93
2019-04-30T07:20:54.685Z,23.00
2019-04-30T07:23:28.528Z,23.30
2019-04-30T07:26:03.376Z,23.10
2019-04-30T07:28:44.695Z,23.03
2019-04-30T07:33:36.282Z,24.70
2019-04-30T07:36:05.810Z,22.60
2019-04-30T07:38:35.680Z,22.40
2019-04-30T07:41:06.563Z,22.97
2019-04-30T07:43:39.054Z,22.97
2019-04-30T07:46:09.388Z,22.60
2019-04-30T07:48:40.265Z,25.13
2019-04-30T07:51:11.055Z,24.50
2019-04-30T07:53:41.387Z,23.93
2019-04-30T07:56:24.137Z,24.80
2019-04-30T07:58:42.376Z,24.57
2019-04-30T08:01:12.030Z,24.33
2019-04-30T08:04:05.762Z,25.80
2019-04-30T08:06:35.618Z,22.93
2019-04-30T08:09:10.288Z,23.50
2019-04-30T08:09:34.157Z,24.17
2019-04-30T08:11:43.408Z,25.80
2019-04-30T08:14:10.697Z,24.30
2019-04-30T08:16:40.195Z,25.93
2019-04-30T08:19:09.737Z,23.13
2019-04-30T08:21:39.286Z,24.27
2019-04-30T08:24:09.352Z,23.43
2019-04-30T08:26:39.831Z,24.30
2019-04-30T08:29:11.291Z,23.40
2019-04-30T08:31:41.345Z,27.10
2019-04-30T08:34:11.222Z,25.27
2019-04-30T08:36:40.769Z,24.20
2019-04-30T08:39:10.635Z,25.20
2019-04-30T08:41:40.207Z,23.90
2019-04-30T08:44:09.718Z,23.00
2019-04-30T08:46:39.237Z,22.93
2019-04-30T08:49:09.944Z,22.50
2019-04-30T08:51:40.147Z,22.27
2019-04-30T08:54:10.435Z,22.83
2019-04-30T08:56:40.467Z,23.07
2019-04-30T08:59:11.153Z,23.30
2019-04-30T09:01:41.341Z,23.27
2019-04-30T09:04:11.282Z,21.80
2019-04-30T09:06:40.865Z,21.20
2019-04-30T09:09:19.322Z,22.10
2019-04-30T09:11:52.912Z,21.67
2019-04-30T09:14:20.103Z,22.57
2019-04-30T09:16:51.290Z,21.80
2019-04-30T09:19:21.419Z,22.63
2019-04-30T09:21:51.553Z,21.37
2019-04-30T09:24:21.359Z,21.37
2019-04-30T09:26:50.983Z,19.30
2019-04-30T09:29:20.607Z,19.17
2019-04-30T09:31:50.742Z,21.60
2019-04-30T09:34:21.053Z,20.27
2019-04-30T09:36:50.879Z,20.90
2019-04-30T09:39:22.918Z,19.27
2019-04-30T09:41:51.927Z,20.17
2019-04-30T09:44:21.476Z,19.10
2019-04-30T09:46:51.015Z,18.77
2019-04-30T09:49:20.588Z,18.67
2019-04-30T09:51:50.448Z,20.73
2019-04-30T09:54:20.771Z,20.37
2019-04-30T09:56:52.673Z,20.17
2019-04-30T09:59:21.974Z,19.27
2019-04-30T10:01:51.484Z,20.67
2019-04-30T10:04:21.656Z,19.70
2019-04-30T10:06:51.456Z,19.37
2019-04-30T10:09:21.001Z,19.97
2019-04-30T10:11:57.238Z,19.83
2019-04-30T10:14:26.855Z,20.13
2019-04-30T10:17:14.020Z,22.20
2019-04-30T10:19:43.567Z,23.43
2019-04-30T10:22:13.101Z,24.63
2019-04-30T10:24:42.623Z,22.93
2019-04-30T10:27:13.427Z,20.80
2019-04-30T10:29:43.394Z,21.93
2019-04-30T10:32:13.321Z,21.27
2019-04-30T10:34:42.915Z,21.80
2019-04-30T10:37:13.184Z,22.17
2019-04-30T10:39:43.089Z,20.40
2019-04-30T10:42:12.572Z,20.47
2019-04-30T10:44:42.110Z,19.20
2019-04-30T10:47:11.824Z,21.10
2019-04-30T10:49:41.497Z,20.10
2019-04-30T10:52:11.003Z,22.00
2019-04-30T10:54:40.899Z,20.43
2019-04-30T10:57:10.549Z,20.07
2019-04-30T10:59:40.086Z,20.80
2019-04-30T11:02:09.626Z,19.83
2019-04-30T11:04:39.143Z,19.93
2019-04-30T11:07:08.858Z,21.77
2019-04-30T11:09:39.319Z,21.80
2019-04-30T11:12:09.553Z,20.37
2019-04-30T11:14:39.260Z,22.10
2019-04-30T11:17:09.934Z,20.00
2019-04-30T11:19:39.925Z,20.90
2019-04-30T11:22:09.865Z,19.17
2019-04-30T11:24:58.244Z,20.83
2019-04-30T11:27:13.509Z,19.73
2019-04-30T11:29:43.888Z,20.50
2019-04-30T11:32:18.886Z,19.87
2019-04-30T11:34:49.107Z,18.87
2019-04-30T11:37:20.306Z,20.07
2019-04-30T11:39:49.843Z,17.83
2019-04-30T11:42:19.395Z,20.30
2019-04-30T11:44:48.934Z,20.83
2019-04-30T11:47:26.124Z,22.00
2019-04-30T11:49:56.054Z,20.87
2019-04-30T11:52:25.563Z,20.70
2019-04-30T11:54:55.567Z,19.33
2019-04-30T11:57:25.075Z,20.93
2019-04-30T11:59:54.586Z,19.83
2019-04-30T12:02:43.234Z,19.87
2019-04-30T12:05:20.554Z,19.10
2019-04-30T12:08:10.598Z,18.13
2019-04-30T12:10:55.876Z,26.37
2019-04-30T12:13:34.548Z,18.63
2019-04-30T12:16:04.566Z,19.40
2019-04-30T12:18:34.563Z,18.47
2019-04-30T12:21:04.775Z,18.33
2019-04-30T12:23:34.878Z,17.90
2019-04-30T12:26:04.501Z,17.90
2019-04-30T12:28:34.030Z,18.30
2019-04-30T12:31:10.053Z,18.90
2019-04-30T12:33:40.174Z,17.17
2019-04-30T12:36:09.827Z,18.03
2019-04-30T12:38:39.384Z,18.03
2019-04-30T12:41:09.272Z,18.30
2019-04-30T12:43:38.952Z,19.30
2019-04-30T12:46:08.970Z,17.20
2019-04-30T12:49:01.505Z,17.50
2019-04-30T12:52:05.435Z,16.97
2019-04-30T12:54:46.317Z,17.53
2019-04-30T12:57:32.231Z,17.83
2019-04-30T13:00:01.789Z,17.50
2019-04-30T13:02:31.312Z,17.63
2019-04-30T13:05:01.035Z,18.00
2019-04-30T13:07:31.529Z,15.77
2019-04-30T13:10:02.621Z,18.87
2019-04-30T13:12:33.170Z,17.97
2019-04-30T13:15:02.942Z,16.63
2019-04-30T13:17:32.690Z,19.50
2019-04-30T13:20:02.219Z,18.97
2019-04-30T13:22:31.983Z,17.80
2019-04-30T13:25:01.751Z,19.50
2019-04-30T13:27:33.886Z,19.70
2019-04-30T13:30:13.029Z,18.23
2019-04-30T13:32:49.404Z,18.27
2019-04-30T13:35:19.186Z,18.90
2019-04-30T13:37:56.483Z,17.97
2019-04-30T13:41:00.019Z,19.13
2019-04-30T13:43:58.750Z,16.70
2019-04-30T13:46:28.601Z,18.47
2019-04-30T13:48:58.111Z,19.07
2019-04-30T13:51:27.660Z,18.77
2019-04-30T13:53:57.191Z,18.80
2019-04-30T13:56:28.664Z,18.20
2019-04-30T13:58:58.305Z,19.73
2019-04-30T14:01:29.411Z,20.03
2019-04-30T14:04:06.594Z,20.53
2019-04-30T14:06:39.654Z,17.13
2019-04-30T14:09:19.443Z,18.57
2019-04-30T14:11:49.123Z,20.30
2019-04-30T14:14:19.991Z,20.07
2019-04-30T14:16:49.667Z,18.80
2019-04-30T14:19:38.283Z,17.27
2019-04-30T14:22:08.952Z,16.70
2019-04-30T14:24:38.740Z,16.87
2019-04-30T14:27:09.037Z,18.07
2019-04-30T14:29:39.597Z,16.37
2019-04-30T14:32:09.698Z,16.10
2019-04-30T14:34:39.619Z,18.10
2019-04-30T14:37:09.257Z,17.93
2019-04-30T14:39:38.918Z,17.63
2019-04-30T14:42:10.656Z,16.97
2019-04-30T14:44:41.129Z,17.17
2019-04-30T14:47:22.260Z,16.40
2019-04-30T14:50:09.966Z,17.27
2019-04-30T14:52:46.901Z,17.47
2019-04-30T14:55:25.096Z,17.60
2019-04-30T14:58:20.450Z,16.43
2019-04-30T15:01:09.347Z,15.57
2019-04-30T15:03:39.480Z,15.40
2019-04-30T15:06:09.575Z,16.50
2019-04-30T15:08:39.532Z,14.77
2019-04-30T15:11:09.174Z,15.97
2019-04-30T15:13:39.344Z,14.70
2019-04-30T15:16:09.058Z,15.03
2019-04-30T15:18:38.978Z,16.17
2019-04-30T15:21:09.567Z,17.50
2019-04-30T15:24:01.771Z,18.27
2019-04-30T15:26:32.268Z,17.80
2019-04-30T15:29:11.768Z,16.73
2019-04-30T15:31:33.772Z,16.10
2019-04-30T15:34:11.041Z,18.20
2019-04-30T15:36:40.935Z,15.70
2019-04-30T15:39:20.259Z,16.97
2019-04-30T15:41:49.794Z,17.20
2019-04-30T15:44:19.346Z,19.10
2019-04-30T15:46:49.047Z,17.67
2019-04-30T15:49:18.554Z,16.67
2019-04-30T15:51:48.095Z,15.00
2019-04-30T15:54:19.020Z,16.73
2019-04-30T15:56:48.992Z,16.97
2019-04-30T15:59:39.451Z,15.73
2019-04-30T16:02:34.211Z,16.03
2019-04-30T16:05:22.458Z,16.70
2019-04-30T16:08:01.355Z,16.13
2019-04-30T16:11:07.264Z,16.00
2019-04-30T16:13:54.174Z,16.00
2019-04-30T16:16:25.956Z,14.90
2019-04-30T16:18:55.498Z,15.57
2019-04-30T16:21:25.339Z,17.40
2019-04-30T16:23:59.902Z,17.47
2019-04-30T16:26:29.562Z,16.13
2019-04-30T16:28:59.490Z,16.80
2019-04-30T16:31:31.374Z,16.47
2019-04-30T16:34:01.210Z,16.60
2019-04-30T16:36:30.791Z,17.00
2019-04-30T16:39:00.352Z,17.03
2019-04-30T16:41:31.831Z,16.27
2019-04-30T16:44:01.039Z,13.93
2019-04-30T16:46:31.193Z,14.77
2019-04-30T16:49:00.734Z,13.70
2019-04-30T16:51:30.689Z,14.33
2019-04-30T16:54:00.207Z,15.20
2019-04-30T16:56:29.758Z,14.97
2019-04-30T16:58:59.318Z,13.70
2019-04-30T17:01:29.703Z,15.33
2019-04-30T17:04:06.062Z,15.60
2019-04-30T17:06:38.660Z,16.80
2019-04-30T17:09:14.627Z,14.13
2019-04-30T17:12:04.436Z,16.27
2019-04-30T17:14:34.824Z,19.20
2019-04-30T17:17:04.403Z,18.30
2019-04-30T17:19:33.935Z,18.60
2019-04-30T17:22:03.799Z,18.17
2019-04-30T17:24:33.312Z,16.67
2019-04-30T17:27:15.900Z,17.70
2019-04-30T17:29:34.545Z,18.10
2019-04-30T17:32:04.060Z,17.20
2019-04-30T17:34:33.600Z,15.93
2019-04-30T17:37:03.134Z,17.13
2019-04-30T17:39:32.774Z,17.47
2019-04-30T17:42:02.452Z,17.40
2019-04-30T17:44:32.069Z,18.83
2019-04-30T17:47:01.706Z,17.40
2019-04-30T17:49:32.092Z,18.50
2019-04-30T17:52:01.628Z,18.23
2019-04-30T17:54:31.138Z,18.27
2019-04-30T17:57:01.071Z,19.70
2019-04-30T17:59:30.603Z,18.60
2019-04-30T18:02:03.718Z,18.23
2019-04-30T18:04:33.537Z,19.37
2019-04-30T18:07:03.130Z,18.67
2019-04-30T18:09:32.646Z,18.43
2019-04-30T18:12:02.404Z,18.70
2019-04-30T18:14:32.256Z,17.57
2019-04-30T18:17:01.817Z,20.43
2019-04-30T18:19:38.653Z,17.67
2019-04-30T18:22:13.226Z,19.80
2019-04-30T18:25:10.799Z,21.33
2019-04-30T18:27:50.127Z,19.70
2019-04-30T18:30:21.519Z,21.77
2019-04-30T18:32:51.060Z,20.87
2019-04-30T18:35:20.636Z,21.73
2019-04-30T18:37:50.150Z,22.57
2019-04-30T18:40:19.693Z,22.30
2019-04-30T18:42:49.506Z,21.37
2019-04-30T18:45:19.579Z,21.53
2019-04-30T18:47:49.069Z,22.53
2019-04-30T18:50:18.819Z,21.93
2019-04-30T18:52:50.685Z,21.70
2019-04-30T18:55:20.386Z,22.03
2019-04-30T18:57:56.398Z,21.20
2019-04-30T19:00:46.180Z,22.50
2019-04-30T19:03:15.699Z,21.97
2019-04-30T19:05:49.201Z,22.03
2019-04-30T19:08:25.042Z,21.13
2019-04-30T19:11:01.585Z,23.80
2019-04-30T19:14:00.029Z,22.90
2019-04-30T19:16:49.373Z,22.80
2019-04-30T19:19:24.822Z,21.10
2019-04-30T19:21:54.391Z,22.30
2019-04-30T19:24:23.890Z,22.17
2019-04-30T19:26:53.406Z,22.87
2019-04-30T19:29:22.976Z,21.57
2019-04-30T19:31:52.514Z,23.40
2019-04-30T19:34:22.066Z,21.03
2019-04-30T19:36:52.018Z,21.40
2019-04-30T19:39:22.463Z,22.47
2019-04-30T19:41:52.431Z,23.60
2019-04-30T19:44:21.988Z,22.13
2019-04-30T19:46:51.803Z,22.90
2019-04-30T19:49:21.322Z,22.57
2019-04-30T19:51:53.182Z,23.00
2019-04-30T19:54:22.488Z,23.60
2019-04-30T19:56:51.987Z,23.00
2019-04-30T19:59:21.523Z,23.57
2019-04-30T20:01:51.062Z,25.40
2019-04-30T20:04:32.685Z,23.10
2019-04-30T20:06:52.109Z,23.73
2019-04-30T20:09:21.651Z,21.47
2019-04-30T20:11:51.306Z,21.00
2019-04-30T20:14:20.850Z,20.50
2019-04-30T20:16:50.382Z,23.23
2019-04-30T20:19:19.944Z,22.80
2019-04-30T20:21:53.687Z,22.63
2019-04-30T20:24:21.180Z,22.90
2019-04-30T20:27:03.561Z,22.70
2019-04-30T20:29:21.907Z,22.47
2019-04-30T20:31:51.446Z,23.43
2019-04-30T20:34:21.352Z,23.27
2019-04-30T20:36:50.898Z,22.70
2019-04-30T20:39:29.428Z,21.17
2019-04-30T20:41:58.993Z,23.40
2019-04-30T20:44:29.046Z,24.53
2019-04-30T20:46:59.138Z,23.83
2019-04-30T20:49:29.199Z,22.97
2019-04-30T20:51:59.184Z,24.90
2019-04-30T20:54:29.211Z,23.67
2019-04-30T20:56:59.110Z,24.57
2019-04-30T20:59:29.041Z,25.47
2019-04-30T21:01:58.799Z,23.90
2019-04-30T21:04:29.409Z,25.70
2019-04-30T21:06:59.470Z,24.33
2019-04-30T21:09:29.209Z,24.60
2019-04-30T21:11:58.843Z,25.70
2019-04-30T21:14:28.770Z,25.03
2019-04-30T21:16:58.250Z,25.33
2019-04-30T21:19:28.217Z,24.87
2019-04-30T21:21:59.534Z,25.50
2019-04-30T21:24:29.251Z,25.80
2019-04-30T21:26:58.731Z,24.60
2019-04-30T21:29:29.569Z,25.57
2019-04-30T21:32:24.234Z,27.37
2019-04-30T21:35:21.675Z,24.57
2019-04-30T21:37:51.559Z,25.60
2019-04-30T21:40:21.078Z,27.73
2019-04-30T21:42:50.852Z,25.67
2019-04-30T21:45:20.438Z,27.07
2019-04-30T21:47:56.496Z,26.30
2019-04-30T21:50:22.142Z,26.47
2019-04-30T21:52:52.731Z,26.53
2019-04-30T21:55:23.011Z,26.40
2019-04-30T21:57:52.670Z,28.67
2019-04-30T22:00:39.707Z,27.47
2019-04-30T22:03:09.767Z,28.87
2019-04-30T22:05:39.418Z,28.73
2019-04-30T22:08:09.161Z,23.53
2019-04-30T22:10:38.742Z,25.37
2019-04-30T22:13:08.907Z,25.63
2019-04-30T22:15:38.458Z,25.40
2019-04-30T22:18:07.994Z,26.30
2019-04-30T22:20:38.904Z,26.67
2019-04-30T22:23:08.698Z,25.83
2019-04-30T22:25:39.266Z,28.23
2019-04-30T22:28:08.928Z,27.27
2019-04-30T22:30:38.448Z,26.40
2019-04-30T22:33:08.967Z,26.03
2019-04-30T22:35:56.961Z,24.20
2019-04-30T22:38:30.259Z,24.07
2019-04-30T22:40:59.800Z,25.30
2019-04-30T22:43:29.311Z,25.20
2019-04-30T22:46:03.549Z,25.43
2019-04-30T22:48:33.362Z,25.37
2019-04-30T22:51:02.859Z,26.50
2019-04-30T22:53:32.370Z,28.20
2019-04-30T22:56:01.897Z,27.93
2019-04-30T22:58:31.397Z,26.50
2019-04-30T23:01:14.518Z,26.37
2019-04-30T23:03:44.033Z,27.60
2019-04-30T23:06:13.935Z,26.27
2019-04-30T23:08:43.430Z,25.57
2019-04-30T23:11:12.942Z,28.03
2019-04-30T23:13:42.437Z,25.80
2019-04-30T23:16:12.463Z,28.07
2019-04-30T23:18:41.951Z,26.97
2019-04-30T23:21:11.473Z,27.07
2019-04-30T23:23:41.278Z,28.97
2019-04-30T23:26:11.094Z,27.30
2019-04-30T23:28:40.607Z,27.60
2019-04-30T23:31:10.078Z,29.67
2019-04-30T23:33:39.586Z,28.50
2019-04-30T23:36:09.206Z,26.70
2019-04-30T23:38:38.677Z,28.37
2019-04-30T23:41:08.295Z,27.10
2019-04-30T23:43:37.763Z,26.93
2019-04-30T23:46:07.286Z,27.67
2019-04-30T23:48:36.798Z,28.83
2019-04-30T23:51:06.347Z,31.10
2019-04-30T23:53:35.841Z,29.13
2019-04-30T23:56:05.658Z,31.10
2019-04-30T23:58:35.519Z,28.47
